Waldo, Ohio
Current Conditions -  °F | °C
As of 2:25 PM on Tuesday 21 Oct 2014 (Local Time) from KMNN Reporting Station
Overcast Overcast  
Wind Chill:   Ceiling: 1100
Heat Index:   Visibility: 9mi
Dew Point:   Wind: 17mph
Humidity: 86%   Direction: 350°N
Pressure: 30.02"   Gusts: 25mph
Location:  40.46°N, 83.08°W
Report Text: KMNN 211825Z AUTO 35015G22KT 9SM BKN011 OVC016 08/06 A3002 RMK AO2 RAE00 P0000 T00830061 TSNO
Loading
Personal Weather Stations






























Interactive Weather Map
Tropical Storm Tracking
New forecast layout! Learn more

10-Day Weather Forecast

Advertisements
Track Severe Weather on mobile